createdAt,value
2022-07-31T00:00:08.156Z,15.30
2022-07-31T00:02:55.819Z,13.60
2022-07-31T00:05:42.936Z,13.35
2022-07-31T00:08:30.115Z,18.60
2022-07-31T00:11:17.393Z,15.07
2022-07-31T00:14:04.420Z,14.20
2022-07-31T00:16:51.330Z,12.18
2022-07-31T00:19:38.568Z,16.52
2022-07-31T00:22:25.560Z,16.48
2022-07-31T00:25:14.380Z,17.35
2022-07-31T00:28:01.559Z,16.88
2022-07-31T00:30:48.597Z,13.52
2022-07-31T00:33:35.562Z,12.43
2022-07-31T00:36:30.022Z,13.68
2022-07-31T00:39:17.361Z,17.73
2022-07-31T00:42:05.725Z,15.02
2022-07-31T00:44:52.956Z,14.15
2022-07-31T00:47:39.894Z,12.30
2022-07-31T00:50:26.819Z,14.45
2022-07-31T00:53:13.803Z,15.15
2022-07-31T00:56:00.766Z,19.02
2022-07-31T00:58:47.877Z,14.77
2022-07-31T01:01:34.849Z,15.10
2022-07-31T01:04:22.008Z,17.08
2022-07-31T01:07:09.766Z,16.70
2022-07-31T01:09:57.535Z,17.90
2022-07-31T01:12:59.525Z,15.98
2022-07-31T01:15:47.756Z,14.30
2022-07-31T01:18:38.971Z,15.68
2022-07-31T01:21:33.596Z,17.92
2022-07-31T01:24:39.118Z,14.60
2022-07-31T01:27:31.346Z,17.23
2022-07-31T01:30:19.916Z,13.80
2022-07-31T01:33:14.227Z,16.95
2022-07-31T01:36:13.117Z,20.85
2022-07-31T01:39:00.397Z,14.40
2022-07-31T01:41:48.131Z,18.10
2022-07-31T01:44:41.942Z,11.98
2022-07-31T01:47:31.491Z,14.95
2022-07-31T01:50:42.343Z,13.50
2022-07-31T01:53:27.973Z,13.95
2022-07-31T01:56:17.696Z,18.23
2022-07-31T01:59:05.599Z,14.48
2022-07-31T02:02:09.780Z,15.27
2022-07-31T02:04:58.090Z,17.33
2022-07-31T02:07:46.035Z,13.63
2022-07-31T02:10:33.764Z,14.60
2022-07-31T02:13:22.500Z,18.55
2022-07-31T02:16:09.513Z,13.43
2022-07-31T02:18:58.482Z,18.30
2022-07-31T02:21:45.542Z,14.80
2022-07-31T02:24:33.452Z,16.25
2022-07-31T02:27:55.410Z,15.52
2022-07-31T02:30:39.335Z,15.05
2022-07-31T02:33:27.903Z,17.85
2022-07-31T02:36:17.843Z,19.83
2022-07-31T02:39:05.864Z,18.77
2022-07-31T02:41:53.671Z,13.85
2022-07-31T02:44:40.817Z,16.38
2022-07-31T02:47:29.204Z,16.13
2022-07-31T02:50:18.931Z,17.33
2022-07-31T02:53:07.676Z,14.00
2022-07-31T02:55:56.053Z,20.52
2022-07-31T02:58:43.086Z,20.67
2022-07-31T03:01:34.938Z,19.00
2022-07-31T03:04:22.116Z,13.50
2022-07-31T03:07:09.149Z,17.90
2022-07-31T03:09:57.580Z,18.88
2022-07-31T03:12:47.651Z,19.30
2022-07-31T03:15:36.196Z,21.45
2022-07-31T03:18:25.049Z,15.77
2022-07-31T03:21:12.395Z,18.75
2022-07-31T03:23:59.886Z,17.10
2022-07-31T03:26:47.382Z,19.05
2022-07-31T03:29:43.288Z,20.70
2022-07-31T03:32:30.840Z,17.55
2022-07-31T03:35:18.154Z,18.35
2022-07-31T03:38:38.352Z,19.15
2022-07-31T03:41:13.007Z,17.63
2022-07-31T03:44:00.093Z,16.73
2022-07-31T03:46:47.237Z,17.40
2022-07-31T03:49:34.522Z,18.02
2022-07-31T03:52:21.883Z,16.83
2022-07-31T03:55:09.298Z,15.95
2022-07-31T03:57:57.252Z,18.48
2022-07-31T04:00:44.762Z,18.40
2022-07-31T04:03:32.225Z,19.75
2022-07-31T04:06:19.177Z,19.30
2022-07-31T04:09:15.592Z,20.67
2022-07-31T04:12:07.229Z,17.48
2022-07-31T04:14:54.512Z,22.45
2022-07-31T04:17:41.472Z,22.95
2022-07-31T04:20:28.541Z,24.70
2022-07-31T04:23:16.626Z,25.80
2022-07-31T04:26:03.669Z,23.98
2022-07-31T04:28:50.598Z,27.88
2022-07-31T04:31:37.542Z,24.08
2022-07-31T04:34:24.540Z,27.33
2022-07-31T04:37:11.435Z,29.00
2022-07-31T04:39:58.503Z,21.55
2022-07-31T04:42:45.447Z,24.23
2022-07-31T04:45:32.498Z,21.73
2022-07-31T04:48:19.412Z,27.08
2022-07-31T04:51:06.789Z,23.85
2022-07-31T04:53:53.840Z,26.75
2022-07-31T04:56:43.557Z,28.65
2022-07-31T04:59:58.533Z,23.17
2022-07-31T05:02:37.881Z,25.42
2022-07-31T05:05:25.012Z,21.13
2022-07-31T05:08:11.976Z,24.27
2022-07-31T05:11:17.616Z,21.38
2022-07-31T05:14:06.292Z,24.98
2022-07-31T05:16:53.665Z,24.38
2022-07-31T05:19:40.626Z,22.95
2022-07-31T05:22:27.537Z,24.67
2022-07-31T05:25:14.450Z,22.70
2022-07-31T05:28:01.373Z,21.02
2022-07-31T05:30:48.699Z,22.10
2022-07-31T05:33:36.216Z,25.35
2022-07-31T05:36:23.194Z,24.23
2022-07-31T05:39:10.270Z,21.85
2022-07-31T05:41:57.399Z,18.65
2022-07-31T05:44:44.374Z,17.90
2022-07-31T05:47:40.188Z,16.20
2022-07-31T05:50:28.044Z,16.67
2022-07-31T05:53:15.801Z,20.05
2022-07-31T05:56:02.766Z,16.85
2022-07-31T05:58:49.705Z,16.52
2022-07-31T06:01:37.285Z,17.90
2022-07-31T06:04:24.398Z,20.70
2022-07-31T06:07:11.319Z,18.13
2022-07-31T06:09:59.075Z,15.43
2022-07-31T06:12:46.278Z,18.65
2022-07-31T06:15:36.478Z,18.13
2022-07-31T06:18:23.959Z,19.20
2022-07-31T06:23:58.192Z,15.63
2022-07-31T06:26:45.168Z,13.23
2022-07-31T06:29:41.834Z,11.38
2022-07-31T06:32:29.240Z,11.30
2022-07-31T06:35:16.283Z,12.93
2022-07-31T06:38:03.254Z,13.25
2022-07-31T06:40:51.473Z,10.82
2022-07-31T06:43:38.431Z,11.63
2022-07-31T06:46:25.359Z,9.88
2022-07-31T06:49:12.704Z,11.38
2022-07-31T06:51:59.647Z,11.25
2022-07-31T06:54:51.865Z,9.88
2022-07-31T06:57:39.034Z,7.68
2022-07-31T07:00:26.073Z,8.00
2022-07-31T07:03:12.990Z,10.32
2022-07-31T07:05:59.912Z,10.02
2022-07-31T07:08:46.950Z,8.27
2022-07-31T07:11:34.111Z,11.50
2022-07-31T07:14:21.054Z,6.78
2022-07-31T07:17:07.954Z,7.10
2022-07-31T07:19:55.833Z,7.93
2022-07-31T07:22:42.820Z,7.57
2022-07-31T07:25:29.882Z,9.73
2022-07-31T07:28:31.083Z,7.88
2022-07-31T07:31:18.359Z,6.45
2022-07-31T07:34:06.254Z,9.60
2022-07-31T07:36:53.804Z,7.22
2022-07-31T07:39:40.757Z,7.65
2022-07-31T07:42:27.677Z,6.85
2022-07-31T07:45:15.440Z,7.32
2022-07-31T07:48:06.794Z,10.05
2022-07-31T07:50:54.449Z,7.72
2022-07-31T07:53:41.444Z,8.50
2022-07-31T07:56:28.521Z,6.55
2022-07-31T07:59:15.465Z,6.03
2022-07-31T08:02:02.761Z,9.48
2022-07-31T08:04:49.978Z,5.45
2022-07-31T08:07:42.690Z,7.15
2022-07-31T08:10:30.206Z,7.13
2022-07-31T08:13:17.149Z,8.30
2022-07-31T08:16:04.366Z,6.38
2022-07-31T08:18:51.748Z,5.65
2022-07-31T08:21:39.254Z,6.38
2022-07-31T08:24:26.203Z,6.43
2022-07-31T08:27:39.717Z,11.05
2022-07-31T08:30:30.820Z,5.90
2022-07-31T08:33:18.189Z,4.60
2022-07-31T08:36:08.891Z,8.25
2022-07-31T08:38:55.824Z,4.85
2022-07-31T08:41:42.807Z,4.28
2022-07-31T08:44:30.984Z,5.72
2022-07-31T08:47:18.476Z,6.60
2022-07-31T08:50:06.368Z,6.28
2022-07-31T08:52:56.685Z,6.03
2022-07-31T08:55:56.699Z,8.70
2022-07-31T08:58:44.685Z,6.00
2022-07-31T09:01:35.043Z,6.82
2022-07-31T09:04:22.085Z,5.30
2022-07-31T09:07:14.606Z,5.95
2022-07-31T09:10:02.956Z,6.57
2022-07-31T09:12:50.175Z,5.43
2022-07-31T09:15:37.625Z,4.63
2022-07-31T09:18:25.217Z,5.72
2022-07-31T09:21:12.146Z,6.82
2022-07-31T09:24:00.166Z,7.85
2022-07-31T09:26:47.097Z,7.65
2022-07-31T09:29:46.761Z,9.52
2022-07-31T09:32:33.727Z,5.47
2022-07-31T09:35:20.753Z,3.95
2022-07-31T09:38:07.762Z,6.22
2022-07-31T09:40:56.943Z,4.80
2022-07-31T09:44:02.588Z,6.00
2022-07-31T09:46:57.632Z,5.65
2022-07-31T09:49:51.928Z,4.32
2022-07-31T09:52:38.950Z,5.43
2022-07-31T09:55:26.062Z,7.93
2022-07-31T09:58:12.986Z,5.05
2022-07-31T10:01:02.053Z,5.30
2022-07-31T10:03:51.191Z,4.82
2022-07-31T10:06:39.157Z,6.70
2022-07-31T10:09:28.754Z,4.45
2022-07-31T10:12:19.477Z,3.35
2022-07-31T10:15:09.323Z,5.25
2022-07-31T10:17:57.016Z,5.93
2022-07-31T10:20:52.538Z,3.03
2022-07-31T10:23:41.602Z,3.10
2022-07-31T10:26:50.609Z,5.32
2022-07-31T10:29:39.066Z,4.03
2022-07-31T10:32:26.553Z,4.22
2022-07-31T10:35:14.697Z,5.10
2022-07-31T10:38:11.386Z,5.20
2022-07-31T10:41:09.723Z,3.40
2022-07-31T10:44:00.805Z,4.97
2022-07-31T10:46:47.959Z,5.03
2022-07-31T10:49:40.270Z,3.40
2022-07-31T10:52:29.267Z,4.65
2022-07-31T10:55:22.426Z,10.00
2022-07-31T10:58:21.005Z,5.25
2022-07-31T11:01:09.323Z,4.97
2022-07-31T11:04:01.919Z,5.47
2022-07-31T11:06:50.400Z,4.47
2022-07-31T11:09:51.096Z,4.15
2022-07-31T11:12:38.971Z,4.70
2022-07-31T11:15:26.000Z,8.55
2022-07-31T11:18:24.912Z,4.75
2022-07-31T11:21:37.124Z,6.75
2022-07-31T11:24:23.291Z,4.55
2022-07-31T11:27:10.234Z,4.28
2022-07-31T11:30:12.998Z,4.97
2022-07-31T11:33:00.555Z,5.13
2022-07-31T11:35:47.563Z,8.18
2022-07-31T11:38:35.071Z,4.70
2022-07-31T11:41:27.743Z,7.35
2022-07-31T11:44:22.756Z,2.88
2022-07-31T11:48:09.676Z,5.85
2022-07-31T11:50:17.317Z,6.70
2022-07-31T11:53:06.767Z,3.33
2022-07-31T11:55:56.465Z,4.28
2022-07-31T11:58:54.622Z,4.07
2022-07-31T12:01:41.851Z,6.00
2022-07-31T12:04:30.344Z,4.72
2022-07-31T12:07:17.403Z,4.25
2022-07-31T12:10:04.946Z,4.85
2022-07-31T12:12:51.956Z,3.70
2022-07-31T12:15:39.130Z,3.38
2022-07-31T12:18:28.022Z,3.92
2022-07-31T12:21:15.944Z,3.65
2022-07-31T12:24:10.382Z,2.88
2022-07-31T12:27:00.922Z,3.50
2022-07-31T12:29:47.872Z,3.72
2022-07-31T12:32:34.826Z,6.07
2022-07-31T12:35:21.764Z,6.20
2022-07-31T12:38:36.877Z,3.88
2022-07-31T12:41:16.597Z,4.53
2022-07-31T12:44:14.675Z,5.28
2022-07-31T12:47:01.967Z,5.22
2022-07-31T12:49:49.704Z,5.35
2022-07-31T12:52:37.859Z,6.38
2022-07-31T12:55:24.895Z,5.47
2022-07-31T12:58:11.841Z,5.32
2022-07-31T13:00:58.757Z,5.18
2022-07-31T13:03:47.150Z,3.80
2022-07-31T13:06:34.104Z,4.63
2022-07-31T13:09:21.178Z,5.15
2022-07-31T13:12:09.569Z,5.63
2022-07-31T13:14:56.531Z,5.55
2022-07-31T13:17:48.103Z,5.78
2022-07-31T13:20:37.818Z,4.18
2022-07-31T13:23:24.757Z,5.90
2022-07-31T13:26:11.849Z,4.20
2022-07-31T13:28:58.942Z,5.95
2022-07-31T13:31:45.888Z,3.28
2022-07-31T13:34:32.817Z,7.50
2022-07-31T13:37:19.828Z,4.10
2022-07-31T13:40:07.631Z,5.55
2022-07-31T13:42:57.463Z,5.93
2022-07-31T13:45:44.503Z,7.22
2022-07-31T13:48:33.247Z,5.30
2022-07-31T13:51:24.030Z,3.75
2022-07-31T13:54:16.484Z,4.75
2022-07-31T13:57:05.850Z,3.63
2022-07-31T13:59:52.750Z,3.53
2022-07-31T14:02:39.772Z,6.20
2022-07-31T14:05:27.582Z,5.15
2022-07-31T14:08:33.515Z,6.20
2022-07-31T14:11:22.024Z,4.63
2022-07-31T14:14:09.342Z,4.60
2022-07-31T14:16:56.332Z,5.15
2022-07-31T14:19:44.721Z,4.80
2022-07-31T14:22:32.545Z,8.30
2022-07-31T14:25:19.513Z,3.80
2022-07-31T14:28:07.757Z,4.15
2022-07-31T14:30:54.830Z,3.08
2022-07-31T14:33:41.767Z,5.90
2022-07-31T14:36:28.717Z,4.55
2022-07-31T14:39:15.776Z,5.43
2022-07-31T14:42:03.061Z,3.58
2022-07-31T14:44:50.218Z,5.07
2022-07-31T14:47:37.850Z,3.90
2022-07-31T14:50:24.964Z,3.22
2022-07-31T14:53:12.347Z,3.50
2022-07-31T14:56:04.020Z,3.78
2022-07-31T14:58:57.607Z,4.68
2022-07-31T15:01:45.104Z,4.85
2022-07-31T15:04:32.445Z,3.20
2022-07-31T15:07:38.523Z,3.97
2022-07-31T15:10:27.465Z,3.90
2022-07-31T15:13:14.409Z,7.55
2022-07-31T15:16:01.399Z,4.40
2022-07-31T15:18:51.557Z,3.63
2022-07-31T15:21:39.071Z,3.10
2022-07-31T15:24:26.024Z,6.10
2022-07-31T15:27:13.002Z,5.18
2022-07-31T15:30:07.144Z,3.42
2022-07-31T15:32:54.847Z,3.95
2022-07-31T15:35:41.794Z,4.13
2022-07-31T15:38:28.725Z,2.90
2022-07-31T15:41:18.781Z,3.85
2022-07-31T15:44:06.182Z,3.25
2022-07-31T15:46:53.169Z,6.32
2022-07-31T15:49:44.145Z,6.85
2022-07-31T15:52:31.837Z,4.00
2022-07-31T15:55:18.849Z,5.97
2022-07-31T15:58:05.840Z,4.95
2022-07-31T16:00:52.862Z,6.43
2022-07-31T16:03:52.881Z,4.50
2022-07-31T16:06:40.531Z,6.90
2022-07-31T16:09:27.737Z,5.15
2022-07-31T16:12:14.691Z,5.88
2022-07-31T16:15:02.473Z,6.15
2022-07-31T16:17:49.920Z,5.97
2022-07-31T16:20:36.939Z,6.57
2022-07-31T16:23:25.704Z,5.20
2022-07-31T16:26:13.447Z,6.97
2022-07-31T16:29:00.547Z,5.10
2022-07-31T16:31:47.615Z,9.15
2022-07-31T16:34:34.532Z,8.60
2022-07-31T16:37:21.487Z,5.45
2022-07-31T16:40:31.861Z,8.52
2022-07-31T16:43:50.289Z,14.98
2022-07-31T16:46:27.417Z,7.43
2022-07-31T16:49:35.756Z,6.97
2022-07-31T16:52:21.645Z,7.70
2022-07-31T16:55:08.767Z,8.35
2022-07-31T16:57:55.861Z,8.05
2022-07-31T17:00:43.027Z,7.88
2022-07-31T17:03:59.038Z,8.63
2022-07-31T17:06:38.123Z,7.18
2022-07-31T17:09:25.377Z,8.95
2022-07-31T17:12:12.404Z,9.25
2022-07-31T17:14:59.555Z,8.45
2022-07-31T17:17:46.515Z,7.90
2022-07-31T17:20:33.577Z,7.65
2022-07-31T17:23:43.424Z,7.90
2022-07-31T17:26:27.538Z,8.38
2022-07-31T17:29:16.216Z,10.07
2022-07-31T17:32:04.291Z,9.48
2022-07-31T17:34:51.315Z,8.35
2022-07-31T17:37:39.420Z,10.68
2022-07-31T17:40:42.575Z,8.07
2022-07-31T17:43:31.257Z,9.45
2022-07-31T17:46:43.932Z,10.85
2022-07-31T17:49:35.690Z,8.50
2022-07-31T17:52:23.031Z,10.50
2022-07-31T17:55:10.912Z,7.75
2022-07-31T17:57:57.898Z,8.63
2022-07-31T18:00:44.848Z,9.93
2022-07-31T18:03:31.843Z,8.70
2022-07-31T18:06:18.768Z,8.70
2022-07-31T18:09:05.843Z,8.98
2022-07-31T18:11:53.639Z,9.18
2022-07-31T18:14:40.833Z,8.13
2022-07-31T18:17:30.743Z,8.70
2022-07-31T18:20:19.484Z,9.00
2022-07-31T18:23:06.413Z,10.57
2022-07-31T18:25:58.916Z,10.55
2022-07-31T18:28:45.903Z,9.30
2022-07-31T18:31:35.194Z,10.90
2022-07-31T18:34:22.696Z,10.52
2022-07-31T18:37:09.658Z,9.23
2022-07-31T18:39:59.898Z,10.45
2022-07-31T18:42:46.816Z,11.45
2022-07-31T18:45:33.839Z,10.13
2022-07-31T18:48:21.082Z,10.13
2022-07-31T18:51:08.316Z,9.20
2022-07-31T18:53:55.761Z,11.25
2022-07-31T18:56:42.695Z,9.95
2022-07-31T18:59:29.972Z,11.77
2022-07-31T19:02:17.029Z,11.88
2022-07-31T19:05:08.980Z,11.75
2022-07-31T19:08:03.790Z,14.00
2022-07-31T19:10:53.278Z,13.38
2022-07-31T19:13:40.229Z,11.27
2022-07-31T19:16:28.462Z,11.98
2022-07-31T19:19:16.294Z,13.85
2022-07-31T19:22:04.423Z,13.23
2022-07-31T19:24:52.454Z,13.30
2022-07-31T19:27:48.502Z,13.63
2022-07-31T19:30:42.794Z,15.35
2022-07-31T19:33:32.678Z,14.95
2022-07-31T19:36:19.644Z,14.50
2022-07-31T19:39:06.627Z,16.55
2022-07-31T19:42:11.023Z,16.48
2022-07-31T19:44:59.022Z,14.27
2022-07-31T19:47:46.041Z,14.05
2022-07-31T19:50:32.955Z,14.75
2022-07-31T19:53:19.908Z,14.55
2022-07-31T19:56:07.224Z,14.52
2022-07-31T19:58:54.230Z,12.73
2022-07-31T20:01:41.185Z,11.43
2022-07-31T20:04:28.329Z,11.52
2022-07-31T20:07:15.378Z,8.93
2022-07-31T20:10:02.333Z,7.53
2022-07-31T20:12:49.273Z,8.23
2022-07-31T20:15:50.862Z,7.90
2022-07-31T20:18:39.630Z,7.25
2022-07-31T20:21:26.829Z,7.20
2022-07-31T20:24:21.942Z,7.78
2022-07-31T20:27:08.906Z,8.75
2022-07-31T20:29:56.060Z,7.20
2022-07-31T20:32:48.628Z,7.93
2022-07-31T20:35:49.018Z,6.95
2022-07-31T20:38:37.113Z,7.22
2022-07-31T20:41:24.809Z,8.10
2022-07-31T20:44:11.747Z,7.60
2022-07-31T20:46:58.767Z,7.78
2022-07-31T20:49:45.729Z,7.18
2022-07-31T20:52:33.245Z,6.82
2022-07-31T20:55:20.231Z,7.55
2022-07-31T20:58:07.305Z,7.47
2022-07-31T21:00:54.499Z,6.75
2022-07-31T21:03:41.813Z,6.43
2022-07-31T21:06:29.172Z,7.13
2022-07-31T21:09:16.119Z,6.57
2022-07-31T21:12:03.600Z,7.53
2022-07-31T21:14:50.771Z,7.88
2022-07-31T21:17:37.772Z,7.70
2022-07-31T21:20:37.932Z,5.97
2022-07-31T21:23:32.178Z,6.97
2022-07-31T21:26:20.581Z,7.93
2022-07-31T21:29:09.059Z,7.65
2022-07-31T21:31:57.417Z,8.20
2022-07-31T21:34:44.685Z,7.32
2022-07-31T21:37:39.015Z,8.00
2022-07-31T21:40:27.490Z,8.25
2022-07-31T21:43:22.334Z,7.25
2022-07-31T21:46:15.300Z,7.60
2022-07-31T21:49:04.929Z,8.27
2022-07-31T21:51:52.141Z,6.82
2022-07-31T21:54:39.739Z,6.72
2022-07-31T21:57:26.709Z,8.55
2022-07-31T22:00:14.297Z,9.20
2022-07-31T22:03:02.927Z,7.03
2022-07-31T22:06:08.743Z,6.28
2022-07-31T22:08:55.667Z,7.90
2022-07-31T22:11:42.582Z,7.22
2022-07-31T22:14:46.077Z,11.15
2022-07-31T22:17:33.391Z,7.07
2022-07-31T22:20:21.552Z,8.23
2022-07-31T22:23:08.602Z,9.18
2022-07-31T22:25:56.261Z,7.68
2022-07-31T22:28:43.984Z,7.72
2022-07-31T22:31:31.040Z,9.88
2022-07-31T22:34:37.234Z,7.85
2022-07-31T22:37:28.160Z,7.70
2022-07-31T22:40:16.894Z,6.90
2022-07-31T22:43:04.864Z,8.15
2022-07-31T22:46:13.237Z,10.93
2022-07-31T22:49:02.300Z,7.82
2022-07-31T22:51:49.323Z,8.68
2022-07-31T22:54:36.257Z,10.35
2022-07-31T22:57:23.163Z,9.02
2022-07-31T23:00:13.275Z,8.07
2022-07-31T23:03:00.221Z,8.25
2022-07-31T23:06:02.999Z,12.70
2022-07-31T23:08:55.119Z,8.25
2022-07-31T23:11:42.368Z,14.57
2022-07-31T23:14:32.040Z,8.52
2022-07-31T23:17:23.186Z,11.02
2022-07-31T23:20:10.968Z,8.75
2022-07-31T23:22:57.949Z,11.13
2022-07-31T23:25:44.980Z,6.68
2022-07-31T23:28:31.950Z,6.55
2022-07-31T23:31:20.099Z,8.90
2022-07-31T23:34:06.993Z,7.07
2022-07-31T23:36:54.157Z,7.55
2022-07-31T23:39:41.176Z,9.43
2022-07-31T23:42:46.144Z,8.18
2022-07-31T23:45:36.106Z,9.10
2022-07-31T23:48:23.055Z,10.57
2022-07-31T23:51:16.323Z,10.40
2022-07-31T23:54:08.306Z,13.77
2022-07-31T23:56:55.240Z,13.43
2022-07-31T23:59:42.173Z,12.70
